Time;durP1;ratioP1;P1;durP2;ratioP2;P2;SDS_P1;SDS_P2;PMS_P1;PMS_P2;Temp;Humidity;BMP_temperature;BMP_pressure;BME280_temperature;BME280_humidity;BME280_pressure;Samples;Min_cycle;Max_cycle;Signal;HPM_P1;HPM_P2
2022/06/25 00:01:23;;;;;;;9.88;5.97;;;;;;;;;;5030024;28;20672;-50
2022/06/25 00:03:50;;;;;;;7.38;6.18;;;;;;;;;;5020600;28;20303;-52
2022/06/25 00:06:16;;;;;;;7.00;6.35;;;;;;;;;;5026860;28;20607;-50
2022/06/25 00:08:44;;;;;;;7.50;6.18;;;;;;;;;;5032738;28;20940;-51
2022/06/25 00:12:31;;;;;;;6.65;6.05;;;;;;;;;;5043737;28;20242;-50
2022/06/25 00:14:02;;;;;;;6.70;6.13;;;;;;;;;;5037646;28;20311;-51
2022/06/25 00:16:28;;;;;;;8.13;6.45;;;;;;;;;;5045039;28;20801;-51
2022/06/25 00:18:54;;;;;;;6.07;5.47;;;;;;;;;;5041585;28;20239;-51
2022/06/25 00:21:21;;;;;;;6.63;6.00;;;;;;;;;;5039527;28;20243;-51
2022/06/25 00:23:47;;;;;;;7.35;6.65;;;;;;;;;;5035028;28;20711;-50
2022/06/25 00:26:15;;;;;;;7.40;6.40;;;;;;;;;;5035061;28;20232;-50
2022/06/25 00:28:41;;;;;;;6.97;6.22;;;;;;;;;;5026364;28;20243;-50
2022/06/25 00:31:07;;;;;;;6.28;5.53;;;;;;;;;;5025153;28;20244;-51
2022/06/25 00:33:34;;;;;;;7.05;6.45;;;;;;;;;;5025649;28;20232;-51
2022/06/25 00:36:00;;;;;;;7.75;6.70;;;;;;;;;;5035780;28;20606;-51
2022/06/25 00:38:26;;;;;;;7.50;6.80;;;;;;;;;;5044893;28;20238;-51
2022/06/25 00:40:53;;;;;;;7.68;6.97;;;;;;;;;;5042559;28;20290;-51
2022/06/25 00:43:21;;;;;;;7.65;7.03;;;;;;;;;;5040404;28;20232;-52
2022/06/25 00:45:47;;;;;;;7.72;7.05;;;;;;;;;;5041404;28;20234;-51
2022/06/25 00:48:13;;;;;;;7.80;7.18;;;;;;;;;;5032573;28;20236;-50
2022/06/25 00:50:40;;;;;;;7.95;7.15;;;;;;;;;;5034027;28;20279;-51
2022/06/25 00:53:07;;;;;;;9.60;8.15;;;;;;;;;;5034008;28;20238;-50
2022/06/25 00:55:38;;;;;;;9.50;8.73;;;;;;;;;;5041482;28;20254;-52
2022/06/25 00:58:09;;;;;;;9.38;8.43;;;;;;;;;;5040404;28;20281;-51
2022/06/25 01:00:37;;;;;;;10.60;8.82;;;;;;;;;;5042439;28;20247;-51
2022/06/25 01:03:04;;;;;;;10.93;9.82;;;;;;;;;;5016247;28;20243;-50
2022/06/25 01:05:30;;;;;;;14.00;12.18;;;;;;;;;;5026181;28;20308;-51
2022/06/25 01:07:57;;;;;;;13.98;12.70;;;;;;;;;;5019610;28;20232;-51
2022/06/25 01:10:23;;;;;;;12.55;11.35;;;;;;;;;;5026976;28;20238;-51
2022/06/25 01:12:49;;;;;;;14.05;12.55;;;;;;;;;;5026675;28;20232;-51
2022/06/25 01:15:16;;;;;;;17.30;15.70;;;;;;;;;;5036816;28;20259;-51
2022/06/25 01:17:45;;;;;;;19.48;17.67;;;;;;;;;;5028806;28;20235;-50
2022/06/25 01:20:11;;;;;;;22.88;20.55;;;;;;;;;;5023843;28;20225;-51
2022/06/25 01:22:39;;;;;;;22.75;20.63;;;;;;;;;;5027120;28;20228;-51
2022/06/25 01:25:07;;;;;;;24.48;22.00;;;;;;;;;;5046087;28;20235;-51
2022/06/25 01:27:34;;;;;;;22.90;20.77;;;;;;;;;;5041461;28;20235;-50
2022/06/25 01:30:00;;;;;;;28.02;25.05;;;;;;;;;;5045288;28;20239;-52
2022/06/25 01:32:26;;;;;;;26.25;23.55;;;;;;;;;;5043497;28;20228;-50
2022/06/25 01:34:53;;;;;;;25.08;22.70;;;;;;;;;;5048214;28;20258;-51
2022/06/25 01:37:21;;;;;;;25.92;23.58;;;;;;;;;;5045883;28;20228;-50
2022/06/25 01:39:51;;;;;;;26.60;24.02;;;;;;;;;;5045793;28;20227;-51
2022/06/25 01:44:58;;;;;;;27.55;24.80;;;;;;;;;;5034300;28;20257;-51
2022/06/25 01:47:24;;;;;;;26.05;23.63;;;;;;;;;;5027215;28;20228;-51
2022/06/25 01:49:51;;;;;;;24.58;22.25;;;;;;;;;;5039366;28;20704;-50
2022/06/25 01:52:17;;;;;;;27.05;24.38;;;;;;;;;;5031364;28;20239;-51
2022/06/25 01:54:43;;;;;;;24.80;22.40;;;;;;;;;;5029774;28;20244;-51
2022/06/25 01:57:11;;;;;;;24.95;22.67;;;;;;;;;;5036413;28;21765;-52
2022/06/25 01:59:37;;;;;;;26.65;24.05;;;;;;;;;;5046838;28;20235;-51
2022/06/25 02:02:04;;;;;;;23.30;21.13;;;;;;;;;;5038789;28;20315;-51
2022/06/25 02:04:30;;;;;;;22.52;20.42;;;;;;;;;;5042233;28;20244;-51
2022/06/25 02:06:56;;;;;;;24.48;21.92;;;;;;;;;;5040435;28;20230;-51
2022/06/25 02:09:23;;;;;;;23.00;20.40;;;;;;;;;;5038692;28;20243;-51
2022/06/25 02:11:49;;;;;;;21.55;19.60;;;;;;;;;;5039246;28;20255;-51
2022/06/25 02:14:17;;;;;;;24.83;22.48;;;;;;;;;;5037995;28;20293;-51
2022/06/25 02:16:43;;;;;;;24.33;21.05;;;;;;;;;;5044913;28;20247;-51
2022/06/25 02:19:10;;;;;;;19.95;18.05;;;;;;;;;;5032086;28;20236;-52
2022/06/25 02:21:36;;;;;;;22.88;20.58;;;;;;;;;;5034265;28;20228;-51
2022/06/25 02:24:03;;;;;;;19.50;17.70;;;;;;;;;;5042086;28;20300;-51
2022/06/25 02:26:29;;;;;;;19.65;17.70;;;;;;;;;;5036799;28;20237;-52
2022/06/25 02:28:55;;;;;;;17.52;15.93;;;;;;;;;;5041083;28;20231;-51
2022/06/25 02:31:23;;;;;;;19.40;17.40;;;;;;;;;;5031455;28;20232;-51
2022/06/25 02:33:49;;;;;;;18.85;16.90;;;;;;;;;;5032186;28;20607;-52
2022/06/25 02:36:16;;;;;;;17.85;16.05;;;;;;;;;;5035435;28;20593;-51
2022/06/25 02:38:42;;;;;;;18.75;17.05;;;;;;;;;;5038136;28;20239;-51
2022/06/25 02:41:08;;;;;;;18.00;16.23;;;;;;;;;;5036896;28;20231;-51
2022/06/25 02:43:35;;;;;;;17.00;15.50;;;;;;;;;;5034882;28;20236;-52
2022/06/25 02:46:01;;;;;;;18.73;16.88;;;;;;;;;;5028855;28;20229;-50
2022/06/25 02:48:29;;;;;;;18.65;16.90;;;;;;;;;;5026211;28;20752;-50
2022/06/25 02:50:55;;;;;;;19.55;17.65;;;;;;;;;;5026197;28;20240;-52
2022/06/25 02:53:21;;;;;;;18.88;17.08;;;;;;;;;;5027762;28;20703;-50
2022/06/25 03:01:15;;;;;;;17.33;15.77;;;;;;;;;;5034442;28;20704;-50
2022/06/25 03:03:43;;;;;;;17.70;16.13;;;;;;;;;;5038220;28;20252;-52
2022/06/25 03:06:09;;;;;;;17.95;16.38;;;;;;;;;;5040842;28;20243;-52
2022/06/25 03:08:36;;;;;;;19.80;17.92;;;;;;;;;;5044970;28;20263;-50
2022/06/25 03:11:03;;;;;;;19.33;17.48;;;;;;;;;;5041394;28;20232;-52
2022/06/25 03:13:31;;;;;;;18.35;16.58;;;;;;;;;;5054635;28;20612;-51
2022/06/25 03:15:58;;;;;;;19.40;17.60;;;;;;;;;;5048626;28;20877;-51
2022/06/25 03:18:24;;;;;;;18.65;16.85;;;;;;;;;;5046182;28;20327;-52
2022/06/25 03:20:52;;;;;;;18.25;16.45;;;;;;;;;;5046930;28;20227;-51
2022/06/25 03:23:19;;;;;;;21.50;19.55;;;;;;;;;;5037529;28;20240;-52
2022/06/25 03:25:45;;;;;;;21.60;19.60;;;;;;;;;;5041723;28;20232;-51
2022/06/25 03:28:12;;;;;;;20.98;19.13;;;;;;;;;;5037951;28;20244;-50
2022/06/25 03:30:38;;;;;;;20.85;18.65;;;;;;;;;;5039914;28;20235;-52
2022/06/25 03:33:04;;;;;;;20.95;19.00;;;;;;;;;;5039275;28;20231;-51
2022/06/25 03:35:31;;;;;;;22.02;20.15;;;;;;;;;;5037606;28;20232;-52
2022/06/25 03:37:58;;;;;;;21.88;19.88;;;;;;;;;;5039277;28;20239;-51
2022/06/25 03:40:25;;;;;;;21.75;19.48;;;;;;;;;;5039475;28;20224;-52
2022/06/25 03:42:51;;;;;;;21.13;19.23;;;;;;;;;;5032067;28;20232;-52
2022/06/25 03:45:17;;;;;;;20.92;18.85;;;;;;;;;;5039755;28;20226;-51
2022/06/25 03:47:49;;;;;;;21.30;19.13;;;;;;;;;;5036323;28;20235;-51
2022/06/25 03:50:16;;;;;;;21.65;19.73;;;;;;;;;;5045333;28;20227;-51
2022/06/25 03:52:42;;;;;;;23.35;21.05;;;;;;;;;;5045004;28;20717;-51
2022/06/25 03:55:10;;;;;;;21.75;19.65;;;;;;;;;;5028090;28;20615;-51
2022/06/25 03:57:36;;;;;;;21.60;19.55;;;;;;;;;;5030767;28;20228;-51
2022/06/25 04:00:03;;;;;;;22.67;20.48;;;;;;;;;;5041264;28;20231;-51
2022/06/25 04:02:30;;;;;;;22.65;20.30;;;;;;;;;;5033636;28;20232;-51
2022/06/25 04:04:56;;;;;;;23.70;21.50;;;;;;;;;;5037823;28;20240;-52
2022/06/25 04:07:22;;;;;;;24.63;20.98;;;;;;;;;;5038897;28;20251;-52
2022/06/25 04:09:49;;;;;;;23.65;21.33;;;;;;;;;;5040877;28;20243;-50
2022/06/25 04:12:16;;;;;;;21.90;20.00;;;;;;;;;;5032393;28;20240;-51
2022/06/25 04:14:43;;;;;;;21.55;19.55;;;;;;;;;;5026598;28;20232;-52
2022/06/25 04:17:10;;;;;;;23.50;21.23;;;;;;;;;;5025321;28;20251;-50
2022/06/25 04:19:40;;;;;;;23.02;20.80;;;;;;;;;;5021831;28;20327;-51
2022/06/25 04:22:06;;;;;;;20.58;18.63;;;;;;;;;;5038942;28;20748;-51
2022/06/25 04:24:33;;;;;;;19.92;18.25;;;;;;;;;;5039143;28;20403;-51
2022/06/25 04:26:59;;;;;;;22.33;20.33;;;;;;;;;;5026654;28;20224;-50
2022/06/25 04:29:26;;;;;;;22.40;20.38;;;;;;;;;;5036754;28;20255;-50
2022/06/25 04:31:52;;;;;;;21.38;19.50;;;;;;;;;;5026685;28;20233;-51
2022/06/25 04:34:18;;;;;;;22.55;20.17;;;;;;;;;;5027056;28;20238;-51
2022/06/25 04:36:45;;;;;;;22.55;20.42;;;;;;;;;;5025914;28;20244;-50
2022/06/25 04:39:11;;;;;;;22.63;20.40;;;;;;;;;;5033304;28;20239;-51
2022/06/25 04:41:37;;;;;;;21.23;19.33;;;;;;;;;;5025115;28;20232;-51
2022/06/25 04:44:04;;;;;;;21.92;19.92;;;;;;;;;;5023381;28;20240;-51
2022/06/25 04:46:31;;;;;;;22.67;20.63;;;;;;;;;;5031417;28;20244;-50
2022/06/25 04:48:58;;;;;;;21.77;19.73;;;;;;;;;;5034613;28;20232;-51
2022/06/25 04:51:24;;;;;;;23.92;21.60;;;;;;;;;;5038639;28;20237;-52
2022/06/25 04:53:56;;;;;;;24.13;21.98;;;;;;;;;;5035547;28;20236;-51
2022/06/25 04:56:23;;;;;;;21.38;19.48;;;;;;;;;;5032187;28;20240;-50
2022/06/25 04:58:49;;;;;;;24.00;21.75;;;;;;;;;;5037000;28;20232;-52
2022/06/25 05:01:16;;;;;;;22.10;20.02;;;;;;;;;;5046457;28;20235;-51
2022/06/25 05:03:44;;;;;;;20.65;18.65;;;;;;;;;;5040211;28;20954;-50
2022/06/25 05:06:10;;;;;;;19.05;17.10;;;;;;;;;;5043198;28;20235;-51
2022/06/25 05:08:36;;;;;;;18.08;16.48;;;;;;;;;;5033772;28;20237;-51
2022/06/25 05:11:03;;;;;;;20.83;18.70;;;;;;;;;;5047210;28;20237;-51
2022/06/25 05:13:29;;;;;;;18.95;17.02;;;;;;;;;;5041098;28;20283;-52
2022/06/25 05:15:56;;;;;;;20.10;18.02;;;;;;;;;;5030443;28;20232;-52
2022/06/25 05:18:22;;;;;;;20.77;18.83;;;;;;;;;;5047827;28;20232;-54
2022/06/25 05:20:50;;;;;;;21.05;18.15;;;;;;;;;;5047892;28;20236;-52
2022/06/25 05:23:19;;;;;;;20.40;18.42;;;;;;;;;;5036434;28;20233;-52
2022/06/25 05:25:45;;;;;;;19.15;17.38;;;;;;;;;;5041099;28;20232;-52
2022/06/25 05:28:12;;;;;;;18.15;16.48;;;;;;;;;;5032572;28;21316;-51
2022/06/25 05:30:38;;;;;;;17.73;15.77;;;;;;;;;;5043925;28;20224;-51
2022/06/25 05:33:04;;;;;;;19.73;17.88;;;;;;;;;;5027649;28;20294;-50
2022/06/25 05:35:31;;;;;;;20.23;18.27;;;;;;;;;;5027041;28;20229;-51
2022/06/25 05:37:58;;;;;;;19.50;17.90;;;;;;;;;;5024637;28;20237;-53
2022/06/25 05:40:25;;;;;;;17.92;16.45;;;;;;;;;;5022026;28;20263;-50
2022/06/25 05:42:51;;;;;;;17.92;16.25;;;;;;;;;;5034480;28;20826;-51
2022/06/25 05:45:18;;;;;;;16.95;15.52;;;;;;;;;;5043790;28;20238;-50
2022/06/25 05:47:44;;;;;;;16.02;14.57;;;;;;;;;;5032189;28;20233;-51
2022/06/25 05:50:10;;;;;;;17.58;15.40;;;;;;;;;;5037022;28;20231;-50
2022/06/25 05:52:37;;;;;;;17.20;15.60;;;;;;;;;;5037049;28;20232;-50
2022/06/25 05:55:05;;;;;;;16.58;15.13;;;;;;;;;;5039432;28;20228;-51
2022/06/25 05:57:31;;;;;;;17.15;15.60;;;;;;;;;;5034711;28;20320;-51
2022/06/25 05:59:58;;;;;;;15.95;14.55;;;;;;;;;;5031857;28;20228;-51
2022/06/25 06:02:26;;;;;;;15.85;14.48;;;;;;;;;;5017229;28;20243;-51
2022/06/25 06:04:52;;;;;;;14.43;13.07;;;;;;;;;;5032978;28;20243;-52
2022/06/25 06:07:18;;;;;;;14.40;13.10;;;;;;;;;;5029447;28;20228;-51
2022/06/25 06:09:45;;;;;;;15.05;13.75;;;;;;;;;;5032712;28;20247;-52
2022/06/25 06:12:12;;;;;;;17.00;15.25;;;;;;;;;;5037142;28;20233;-51
2022/06/25 06:14:39;;;;;;;14.85;13.45;;;;;;;;;;5042024;28;20236;-50
2022/06/25 06:17:05;;;;;;;14.52;13.20;;;;;;;;;;5039818;28;20237;-51
2022/06/25 06:19:31;;;;;;;14.35;13.15;;;;;;;;;;5028282;28;20255;-51
2022/06/25 06:21:58;;;;;;;18.73;16.98;;;;;;;;;;5029135;28;20220;-52
2022/06/25 06:24:24;;;;;;;15.98;14.48;;;;;;;;;;5027965;28;20244;-52
2022/06/25 06:26:50;;;;;;;13.38;12.27;;;;;;;;;;5031572;28;20228;-51
2022/06/25 06:29:18;;;;;;;14.20;12.90;;;;;;;;;;5037664;28;20232;-52
2022/06/25 06:31:44;;;;;;;14.43;13.13;;;;;;;;;;5033062;28;20578;-50
2022/06/25 06:34:11;;;;;;;15.80;14.43;;;;;;;;;;5030818;28;20228;-52
2022/06/25 06:36:37;;;;;;;16.13;14.57;;;;;;;;;;5029059;28;20236;-51
2022/06/25 06:39:04;;;;;;;15.98;13.63;;;;;;;;;;5038615;28;20228;-50
2022/06/25 06:41:30;;;;;;;15.00;13.70;;;;;;;;;;5034183;28;20845;-51
2022/06/25 06:43:56;;;;;;;16.42;14.93;;;;;;;;;;5032509;28;20236;-51
2022/06/25 06:46:24;;;;;;;16.25;14.68;;;;;;;;;;5032165;28;20226;-51
2022/06/25 06:48:50;;;;;;;15.68;14.02;;;;;;;;;;5034286;28;20239;-51
2022/06/25 06:51:17;;;;;;;14.30;13.10;;;;;;;;;;5033678;28;20737;-52
2022/06/25 06:53:43;;;;;;;14.15;12.85;;;;;;;;;;5035491;28;20239;-51
2022/06/25 06:56:09;;;;;;;15.68;14.40;;;;;;;;;;5032735;28;20236;-51
2022/06/25 06:58:36;;;;;;;14.88;13.63;;;;;;;;;;5032442;28;20236;-52
2022/06/25 07:01:02;;;;;;;15.05;13.73;;;;;;;;;;5035869;28;20239;-51
2022/06/25 07:03:30;;;;;;;13.82;12.60;;;;;;;;;;5038658;28;20236;-51
2022/06/25 07:05:56;;;;;;;15.18;13.88;;;;;;;;;;5038257;28;20327;-51
2022/06/25 07:08:22;;;;;;;14.88;13.57;;;;;;;;;;5029244;28;20236;-50
2022/06/25 07:10:49;;;;;;;13.48;12.32;;;;;;;;;;5034547;28;20228;-51
2022/06/25 07:13:15;;;;;;;14.07;12.88;;;;;;;;;;5023204;28;20247;-51
2022/06/25 07:15:41;;;;;;;14.02;12.88;;;;;;;;;;5035661;28;20228;-51
2022/06/25 07:18:08;;;;;;;13.65;12.25;;;;;;;;;;5028802;28;20247;-51
2022/06/25 07:20:36;;;;;;;18.00;16.00;;;;;;;;;;5039511;28;20232;-51
2022/06/25 07:23:02;;;;;;;16.67;15.20;;;;;;;;;;5038062;28;20251;-52
2022/06/25 07:25:28;;;;;;;18.10;16.40;;;;;;;;;;5033130;28;20239;-51
2022/06/25 07:27:55;;;;;;;16.08;14.73;;;;;;;;;;5038920;28;20235;-53
2022/06/25 07:30:21;;;;;;;15.80;14.40;;;;;;;;;;5032071;28;20323;-51
2022/06/25 07:32:47;;;;;;;17.60;15.77;;;;;;;;;;5036230;28;20240;-51
2022/06/25 07:35:13;;;;;;;15.00;13.48;;;;;;;;;;5040968;28;20228;-51
2022/06/25 07:37:42;;;;;;;16.23;14.85;;;;;;;;;;5035628;28;20272;-53
2022/06/25 07:40:09;;;;;;;14.65;13.25;;;;;;;;;;5033871;28;20228;-51
2022/06/25 07:42:35;;;;;;;16.00;14.65;;;;;;;;;;5015319;28;20229;-51
2022/06/25 07:45:03;;;;;;;14.52;13.15;;;;;;;;;;5027065;28;20235;-51
2022/06/25 07:47:35;;;;;;;17.00;15.43;;;;;;;;;;5020736;28;20246;-51
2022/06/25 07:52:48;;;;;;;17.60;15.75;;;;;;;;;;5025216;28;20235;-51
2022/06/25 07:55:14;;;;;;;16.90;15.25;;;;;;;;;;5029790;28;20242;-50
2022/06/25 07:57:40;;;;;;;16.33;14.65;;;;;;;;;;5032156;28;20607;-51
2022/06/25 08:00:09;;;;;;;14.60;13.20;;;;;;;;;;5032429;28;20236;-53
2022/06/25 08:02:35;;;;;;;15.80;14.40;;;;;;;;;;5034816;28;20236;-51
2022/06/25 08:05:02;;;;;;;14.40;13.25;;;;;;;;;;5021313;28;20721;-51
2022/06/25 08:07:28;;;;;;;14.82;13.43;;;;;;;;;;5042236;28;20284;-52
2022/06/25 08:09:56;;;;;;;15.57;14.18;;;;;;;;;;5038379;28;20695;-51
2022/06/25 08:12:22;;;;;;;15.23;13.77;;;;;;;;;;5041279;28;20227;-51
2022/06/25 08:14:48;;;;;;;19.23;17.45;;;;;;;;;;5039957;28;20239;-52
2022/06/25 08:17:15;;;;;;;17.45;15.73;;;;;;;;;;5034231;28;20248;-51
2022/06/25 08:19:41;;;;;;;17.40;15.70;;;;;;;;;;5034448;28;20238;-51
2022/06/25 08:22:07;;;;;;;17.55;16.05;;;;;;;;;;5041773;28;20231;-51
2022/06/25 08:24:34;;;;;;;18.80;17.00;;;;;;;;;;5041350;28;20232;-52
2022/06/25 08:27:01;;;;;;;17.35;15.85;;;;;;;;;;5039986;28;20230;-51
2022/06/25 08:29:28;;;;;;;18.17;15.75;;;;;;;;;;5038715;28;20758;-53
2022/06/25 08:31:54;;;;;;;16.58;15.18;;;;;;;;;;5053090;28;20231;-50
2022/06/25 08:34:21;;;;;;;18.17;16.58;;;;;;;;;;5045735;28;20718;-50
2022/06/25 08:36:47;;;;;;;16.45;15.02;;;;;;;;;;5046595;28;20236;-51
2022/06/25 08:39:13;;;;;;;14.68;13.38;;;;;;;;;;5041040;28;20232;-51
2022/06/25 08:41:40;;;;;;;14.98;13.88;;;;;;;;;;5040191;28;20231;-52
2022/06/25 08:44:07;;;;;;;13.65;12.40;;;;;;;;;;5030806;28;20231;-52
2022/06/25 08:46:34;;;;;;;15.20;13.80;;;;;;;;;;5035805;28;20307;-51
2022/06/25 08:49:00;;;;;;;14.27;13.07;;;;;;;;;;5038946;28;20229;-51
2022/06/25 08:51:28;;;;;;;14.77;13.43;;;;;;;;;;5032802;28;20241;-51
2022/06/25 08:53:55;;;;;;;12.60;11.70;;;;;;;;;;5029875;28;20250;-51
2022/06/25 08:56:21;;;;;;;13.82;12.63;;;;;;;;;;5043971;28;20236;-51
2022/06/25 08:58:47;;;;;;;12.80;11.57;;;;;;;;;;5038433;28;20666;-51
2022/06/25 09:01:15;;;;;;;12.77;11.65;;;;;;;;;;5032846;28;20243;-51
2022/06/25 09:03:41;;;;;;;12.70;11.40;;;;;;;;;;5030164;28;20232;-51
2022/06/25 09:06:17;;;;;;;13.32;12.13;;;;;;;;;;5030169;28;20224;-50
2022/06/25 09:08:44;;;;;;;14.82;11.57;;;;;;;;;;5037182;28;20258;-50
2022/06/25 09:11:12;;;;;;;11.45;10.55;;;;;;;;;;5039023;28;20224;-50
2022/06/25 09:13:38;;;;;;;13.10;11.80;;;;;;;;;;5040763;28;20240;-50
2022/06/25 09:16:04;;;;;;;11.88;10.98;;;;;;;;;;5038701;28;20224;-50
2022/06/25 09:18:34;;;;;;;12.55;11.55;;;;;;;;;;5042495;28;20246;-50
2022/06/25 09:21:01;;;;;;;12.80;11.45;;;;;;;;;;5025842;28;20723;-51
2022/06/25 09:23:29;;;;;;;12.65;11.63;;;;;;;;;;5042684;28;20247;-51
2022/06/25 09:26:02;;;;;;;12.75;11.55;;;;;;;;;;5042653;28;20898;-51
2022/06/25 09:28:29;;;;;;;11.70;10.80;;;;;;;;;;5029937;28;20233;-51
2022/06/25 09:30:55;;;;;;;13.55;12.43;;;;;;;;;;5024862;28;20244;-51
2022/06/25 09:33:21;;;;;;;11.80;10.55;;;;;;;;;;5030718;28;20252;-50
2022/06/25 09:35:51;;;;;;;13.98;12.68;;;;;;;;;;5035067;28;20235;-51
2022/06/25 09:38:17;;;;;;;13.98;12.70;;;;;;;;;;5046974;28;20681;-51
2022/06/25 09:40:48;;;;;;;12.00;11.10;;;;;;;;;;5043361;28;20659;-52
2022/06/25 09:43:15;;;;;;;11.50;10.60;;;;;;;;;;5040729;28;20236;-51
2022/06/25 09:45:43;;;;;;;12.57;11.38;;;;;;;;;;5044458;28;20235;-51
2022/06/25 09:48:10;;;;;;;11.50;10.50;;;;;;;;;;5034723;28;20227;-51
2022/06/25 09:50:36;;;;;;;11.98;10.98;;;;;;;;;;5044018;28;20231;-51
2022/06/25 09:53:04;;;;;;;13.40;12.10;;;;;;;;;;5042112;28;20236;-51
2022/06/25 09:55:31;;;;;;;11.85;10.82;;;;;;;;;;5045712;28;20239;-50
2022/06/25 09:58:00;;;;;;;12.27;11.18;;;;;;;;;;5038413;28;20331;-50
2022/06/25 10:00:26;;;;;;;11.80;10.80;;;;;;;;;;5042078;28;20633;-51
2022/06/25 10:02:53;;;;;;;11.50;10.60;;;;;;;;;;5047542;28;20231;-51
2022/06/25 10:05:25;;;;;;;15.57;14.15;;;;;;;;;;5042763;28;20260;-51
2022/06/25 10:08:01;;;;;;;14.43;13.23;;;;;;;;;;5027720;28;20316;-52
2022/06/25 10:10:30;;;;;;;13.73;12.45;;;;;;;;;;5035689;28;20244;-52
2022/06/25 10:12:56;;;;;;;12.63;11.63;;;;;;;;;;5041224;28;20704;-52
2022/06/25 10:15:23;;;;;;;11.68;10.68;;;;;;;;;;5027855;28;20228;-52
2022/06/25 10:17:51;;;;;;;12.18;11.18;;;;;;;;;;5035716;28;20250;-51
2022/06/25 10:20:18;;;;;;;12.10;11.10;;;;;;;;;;5019933;28;20268;-52
2022/06/25 10:22:45;;;;;;;11.10;10.25;;;;;;;;;;5046241;28;20227;-51
2022/06/25 10:25:12;;;;;;;10.43;9.52;;;;;;;;;;5041772;28;20363;-51
2022/06/25 10:27:40;;;;;;;11.05;10.13;;;;;;;;;;5021650;28;20231;-50
2022/06/25 10:30:07;;;;;;;11.20;10.20;;;;;;;;;;5038009;28;20723;-50
2022/06/25 10:32:42;;;;;;;11.02;10.07;;;;;;;;;;5042795;28;20246;-52
2022/06/25 10:35:08;;;;;;;10.57;9.75;;;;;;;;;;5038948;28;20254;-50
2022/06/25 10:37:49;;;;;;;11.45;10.55;;;;;;;;;;5042871;28;20258;-51
2022/06/25 10:40:18;;;;;;;11.70;10.70;;;;;;;;;;5039860;28;20232;-52
2022/06/25 10:43:00;;;;;;;13.70;12.57;;;;;;;;;;5043514;28;20231;-51
2022/06/25 10:45:47;;;;;;;14.68;13.30;;;;;;;;;;5040489;28;20224;-53
2022/06/25 10:48:14;;;;;;;14.55;13.23;;;;;;;;;;5024831;28;20231;-51
2022/06/25 10:50:45;;;;;;;14.30;13.10;;;;;;;;;;5030721;28;20230;-52
2022/06/25 10:53:22;;;;;;;14.20;13.00;;;;;;;;;;5031263;28;20243;-50
2022/06/25 10:56:00;;;;;;;12.98;11.98;;;;;;;;;;5035974;28;20650;-51
2022/06/25 10:58:28;;;;;;;14.88;13.52;;;;;;;;;;5036636;28;20239;-52
2022/06/25 11:00:55;;;;;;;13.63;12.27;;;;;;;;;;5030400;28;20241;-50
2022/06/25 11:03:36;;;;;;;14.60;13.30;;;;;;;;;;5037912;28;20231;-51
2022/06/25 11:06:17;;;;;;;16.23;14.60;;;;;;;;;;5032787;28;20217;-51
2022/06/25 11:08:44;;;;;;;15.48;14.07;;;;;;;;;;5035706;28;20737;-52
2022/06/25 11:11:11;;;;;;;14.80;13.15;;;;;;;;;;5045084;28;20301;-52
2022/06/25 11:13:41;;;;;;;14.82;13.57;;;;;;;;;;5042549;28;20239;-51
2022/06/25 11:16:13;;;;;;;15.60;14.10;;;;;;;;;;5042259;28;20477;-51
2022/06/25 11:18:46;;;;;;;14.80;13.45;;;;;;;;;;5039611;28;20315;-50
2022/06/25 11:21:23;;;;;;;14.18;12.82;;;;;;;;;;5040965;28;20270;-51
2022/06/25 11:23:50;;;;;;;14.27;12.90;;;;;;;;;;5042193;28;20240;-51
2022/06/25 11:29:01;;;;;;;14.73;13.52;;;;;;;;;;5026832;28;20374;-52
2022/06/25 11:31:28;;;;;;;18.58;14.38;;;;;;;;;;5040308;28;20231;-50
2022/06/25 11:33:55;;;;;;;14.23;12.38;;;;;;;;;;5035614;28;20247;-49
2022/06/25 11:36:21;;;;;;;14.60;13.38;;;;;;;;;;5028703;28;20327;-51
2022/06/25 11:38:50;;;;;;;15.25;13.50;;;;;;;;;;5025668;28;20254;-51
2022/06/25 11:41:19;;;;;;;14.57;13.02;;;;;;;;;;5044563;28;20252;-50
2022/06/25 11:43:46;;;;;;;13.38;12.27;;;;;;;;;;5039630;28;20896;-52
2022/06/25 11:46:16;;;;;;;11.48;10.57;;;;;;;;;;5042263;28;20228;-51
2022/06/25 11:48:42;;;;;;;13.88;12.65;;;;;;;;;;5044656;28;20243;-52
2022/06/25 11:51:08;;;;;;;14.02;12.77;;;;;;;;;;5041265;28;20236;-51
2022/06/25 11:53:36;;;;;;;14.48;13.05;;;;;;;;;;5038903;28;20242;-54
2022/06/25 11:56:04;;;;;;;13.82;12.65;;;;;;;;;;5035228;28;20631;-50
2022/06/25 11:58:31;;;;;;;13.63;12.52;;;;;;;;;;5043519;28;20244;-52
2022/06/25 12:00:58;;;;;;;12.60;11.60;;;;;;;;;;5040249;28;20228;-51
2022/06/25 12:03:27;;;;;;;14.13;13.00;;;;;;;;;;5042607;28;20235;-53
2022/06/25 12:05:53;;;;;;;13.90;12.65;;;;;;;;;;5031791;28;20244;-51
2022/06/25 12:08:20;;;;;;;14.77;13.48;;;;;;;;;;5017212;28;20240;-51
2022/06/25 12:10:48;;;;;;;13.43;12.32;;;;;;;;;;5019059;28;20248;-51
2022/06/25 12:13:14;;;;;;;13.07;11.77;;;;;;;;;;5030913;28;20232;-53
2022/06/25 12:15:40;;;;;;;13.30;12.30;;;;;;;;;;5030295;28;20240;-51
2022/06/25 12:18:07;;;;;;;11.68;10.88;;;;;;;;;;5042577;28;20243;-52
2022/06/25 12:20:35;;;;;;;12.80;11.60;;;;;;;;;;5035783;28;20226;-52
2022/06/25 12:23:02;;;;;;;12.63;11.60;;;;;;;;;;5039724;28;20240;-51
2022/06/25 12:25:29;;;;;;;12.35;11.07;;;;;;;;;;5039999;28;20227;-50
2022/06/25 12:27:56;;;;;;;10.88;9.98;;;;;;;;;;5033386;28;20241;-52
2022/06/25 12:30:23;;;;;;;12.77;11.38;;;;;;;;;;5038442;28;20352;-51
2022/06/25 12:32:50;;;;;;;12.55;11.55;;;;;;;;;;5036145;28;20231;-51
2022/06/25 12:35:18;;;;;;;11.82;10.88;;;;;;;;;;5025907;28;20306;-51
2022/06/25 12:37:58;;;;;;;11.77;10.73;;;;;;;;;;5033366;28;20232;-51
2022/06/25 12:40:25;;;;;;;10.73;9.82;;;;;;;;;;5033811;28;20229;-52
2022/06/25 12:42:54;;;;;;;10.25;9.45;;;;;;;;;;5033273;28;20236;-52
2022/06/25 12:45:20;;;;;;;11.45;10.35;;;;;;;;;;5036706;28;20240;-52
2022/06/25 12:47:47;;;;;;;12.85;11.60;;;;;;;;;;5027215;28;20240;-53
2022/06/25 12:50:21;;;;;;;11.23;10.32;;;;;;;;;;5038440;28;20243;-52
2022/06/25 12:52:49;;;;;;;10.38;9.57;;;;;;;;;;5029623;28;20753;-51
2022/06/25 12:55:18;;;;;;;11.60;10.77;;;;;;;;;;5035323;28;20243;-52
2022/06/25 12:57:44;;;;;;;10.65;9.80;;;;;;;;;;5042428;28;20240;-51
2022/06/25 13:00:17;;;;;;;10.38;9.68;;;;;;;;;;5024284;28;20237;-52
2022/06/25 13:02:43;;;;;;;10.35;9.55;;;;;;;;;;5009375;28;20244;-51
2022/06/25 13:05:10;;;;;;;11.57;10.57;;;;;;;;;;5013588;28;20236;-51
2022/06/25 13:07:36;;;;;;;10.52;9.65;;;;;;;;;;5024214;28;20237;-52
2022/06/25 13:10:04;;;;;;;10.48;9.68;;;;;;;;;;5037826;28;20235;-52
2022/06/25 13:12:30;;;;;;;11.05;10.07;;;;;;;;;;5032273;28;20232;-50
2022/06/25 13:14:57;;;;;;;11.07;10.07;;;;;;;;;;5035763;28;20243;-50
2022/06/25 13:17:23;;;;;;;10.93;9.95;;;;;;;;;;5018374;28;20237;-52
2022/06/25 13:19:49;;;;;;;10.23;9.50;;;;;;;;;;5035815;28;20239;-51
2022/06/25 13:22:16;;;;;;;12.75;10.65;;;;;;;;;;5035860;28;20262;-50
2022/06/25 13:24:44;;;;;;;10.90;10.07;;;;;;;;;;5025223;28;20240;-52
2022/06/25 13:27:12;;;;;;;10.52;9.63;;;;;;;;;;5032834;28;20718;-52
2022/06/25 13:29:38;;;;;;;11.07;10.10;;;;;;;;;;5028149;28;20264;-51
2022/06/25 13:32:05;;;;;;;11.00;10.10;;;;;;;;;;5027641;28;20243;-53
2022/06/25 13:34:31;;;;;;;10.55;9.75;;;;;;;;;;5017250;28;20711;-51
2022/06/25 13:36:57;;;;;;;10.13;9.30;;;;;;;;;;5032633;28;20230;-52
2022/06/25 13:39:24;;;;;;;10.10;9.10;;;;;;;;;;5034278;28;20617;-53
2022/06/25 13:41:51;;;;;;;10.50;9.70;;;;;;;;;;5024781;28;20232;-51
2022/06/25 13:44:19;;;;;;;10.52;9.43;;;;;;;;;;5017148;28;20247;-51
2022/06/25 13:46:46;;;;;;;11.88;10.93;;;;;;;;;;5042137;28;20602;-52
2022/06/25 13:49:13;;;;;;;11.77;10.77;;;;;;;;;;5040676;28;20228;-51
2022/06/25 13:51:39;;;;;;;9.57;8.88;;;;;;;;;;5045815;28;20246;-52
2022/06/25 13:54:06;;;;;;;10.18;9.32;;;;;;;;;;5022078;28;20235;-52
2022/06/25 13:56:32;;;;;;;9.85;8.98;;;;;;;;;;5039345;28;20262;-51
2022/06/25 13:58:59;;;;;;;10.77;9.68;;;;;;;;;;5040487;28;20743;-52
2022/06/25 14:01:27;;;;;;;10.30;9.30;;;;;;;;;;5038088;28;20236;-51
2022/06/25 14:03:53;;;;;;;9.90;9.18;;;;;;;;;;5032962;28;20248;-51
2022/06/25 14:06:19;;;;;;;8.43;7.75;;;;;;;;;;5026431;28;20305;-51
2022/06/25 14:08:46;;;;;;;9.65;8.70;;;;;;;;;;5013567;28;20226;-51
2022/06/25 14:11:14;;;;;;;9.30;8.45;;;;;;;;;;5041439;28;20733;-51
2022/06/25 14:13:40;;;;;;;9.93;9.02;;;;;;;;;;5033738;28;20247;-51
2022/06/25 14:16:07;;;;;;;8.70;8.10;;;;;;;;;;5040497;28;20233;-52
2022/06/25 14:18:35;;;;;;;9.30;8.60;;;;;;;;;;5023385;28;20236;-52
2022/06/25 14:21:01;;;;;;;9.60;8.73;;;;;;;;;;5040727;28;20228;-51
2022/06/25 14:23:28;;;;;;;10.65;9.75;;;;;;;;;;5026654;28;20243;-51
2022/06/25 14:25:54;;;;;;;15.30;10.70;;;;;;;;;;5032873;28;20442;-51
2022/06/25 14:28:20;;;;;;;19.25;12.60;;;;;;;;;;5035424;28;20236;-51
2022/06/25 14:30:47;;;;;;;12.05;10.95;;;;;;;;;;5043003;28;20224;-51
2022/06/25 14:33:13;;;;;;;13.13;11.82;;;;;;;;;;5042083;28;20235;-51
2022/06/25 14:42:20;;;;;;;16.45;12.13;;;;;;;;;;5039575;28;20332;-51